Time,TemperatureF,DewpointF,PressureIn,WindDirection,WindDirectionDegrees,WindSpeedMPH,WindSpeedGustMPH,Humidity,HourlyPrecipIn,Conditions,Clouds,dailyrainin,SoftwareType,DateUTC
2013-05-11 00:00:00,59.9,59.0,29.88,South,180,0.0,0.0,97,0.00,,---,0.01,VWS V12.07,2013-05-11 04:00:00,
2013-05-11 00:30:00,59.6,58.8,29.89,South,180,0.0,0.0,97,0.00,,---,0.00,VWS V12.07,2013-05-11 04:30:00,
2013-05-11 01:00:00,58.6,58.0,29.89,South,180,0.0,0.0,98,0.00,,---,0.00,VWS V12.07,2013-05-11 05:00:00,
2013-05-11 01:30:00,57.5,56.9,29.89,South,180,0.0,0.0,98,0.00,,---,0.00,VWS V12.07,2013-05-11 05:30:00,
2013-05-11 02:00:00,56.6,56.0,29.89,South,180,0.0,0.0,98,0.00,,---,0.00,VWS V12.07,2013-05-11 06:00:00,
2013-05-11 02:30:00,56.6,56.3,29.87,South,180,0.0,0.0,99,0.00,,---,0.00,VWS V12.07,2013-05-11 06:30:00,
2013-05-11 03:00:00,56.6,56.3,29.87,South,180,0.0,0.0,99,0.00,,---,0.00,VWS V12.07,2013-05-11 07:00:00,
2013-05-11 03:30:00,56.7,56.4,29.86,South,180,0.0,0.0,99,0.00,,---,0.00,VWS V12.07,2013-05-11 07:30:00,
2013-05-11 04:00:00,56.3,56.0,29.85,South,180,0.0,0.0,99,0.00,,---,0.00,VWS V12.07,2013-05-11 08:00:00,
2013-05-11 04:30:00,56.2,56.2,29.85,South,180,0.0,0.0,100,0.00,,---,0.00,VWS V12.07,2013-05-11 08:30:00,
2013-05-11 05:00:00,56.6,56.6,29.84,South,180,0.0,0.0,100,0.00,,---,0.00,VWS V12.07,2013-05-11 09:00:00,
2013-05-11 05:30:00,56.7,56.7,29.85,South,180,0.0,0.0,100,0.00,,---,0.00,VWS V12.07,2013-05-11 09:30:00,
2013-05-11 06:00:00,56.7,56.7,29.85,South,180,0.0,0.0,100,0.00,,---,0.00,VWS V12.07,2013-05-11 10:00:00,
2013-05-11 06:30:00,56.6,56.6,29.84,South,180,0.0,0.0,100,0.00,,---,0.00,VWS V12.07,2013-05-11 10:30:00,
2013-05-11 07:00:00,56.9,56.9,29.84,South,180,0.0,0.0,100,0.00,,---,0.00,VWS V12.07,2013-05-11 11:00:00,
2013-05-11 07:30:00,57.3,57.3,29.87,South,180,0.0,0.0,100,0.02,,---,0.02,VWS V12.07,2013-05-11 11:30:00,
2013-05-11 08:00:00,58.3,58.3,29.87,South,180,0.0,0.0,100,0.08,,---,0.07,VWS V12.07,2013-05-11 12:00:00,
2013-05-11 08:30:00,59.3,59.3,29.86,South,180,0.0,0.0,100,0.06,,---,0.07,VWS V12.07,2013-05-11 12:30:00,
2013-05-11 09:00:00,60.1,60.1,29.86,South,180,0.0,0.0,100,0.00,,---,0.07,VWS V12.07,2013-05-11 13:00:00,
2013-05-11 09:30:00,61.6,61.6,29.87,South,180,0.0,0.0,100,0.00,,---,0.07,VWS V12.07,2013-05-11 13:30:00,
2013-05-11 10:00:00,61.8,61.8,29.86,ESE,107,0.0,0.0,100,0.00,,---,0.07,VWS V12.07,2013-05-11 14:00:00,
2013-05-11 10:30:00,62.6,62.6,29.86,SSE,148,0.0,2.0,100,0.00,,---,0.07,VWS V12.07,2013-05-11 14:30:00,
2013-05-11 11:00:00,63.7,62.5,29.86,SE,144,0.0,3.0,96,0.00,,---,0.07,VWS V12.07,2013-05-11 15:00:00,
2013-05-11 11:30:00,65.2,63.7,29.85,NNE,32,0.0,0.0,95,0.00,,---,0.07,VWS V12.07,2013-05-11 15:30:00,
2013-05-11 12:00:00,66.1,62.5,29.85,NNE,33,0.0,0.0,88,0.00,,---,0.07,VWS V12.07,2013-05-11 16:00:00,
2013-05-11 12:30:00,67.1,61.8,29.86,SSE,165,0.0,3.0,83,0.00,,---,0.07,VWS V12.07,2013-05-11 16:30:00,
2013-05-11 13:00:00,68.4,62.3,29.85,North,9,0.0,3.0,81,0.00,,---,0.07,VWS V12.07,2013-05-11 17:00:00,
2013-05-11 13:30:00,68.4,59.4,29.84,WSW,246,3.0,5.0,73,0.00,,---,0.07,VWS V12.07,2013-05-11 17:30:00,
2013-05-11 14:00:00,69.3,58.7,29.83,ESE,108,1.0,6.0,69,0.00,,---,0.07,VWS V12.07,2013-05-11 18:00:00,
2013-05-11 14:30:00,69.9,60.1,29.82,SSE,150,3.0,7.0,71,0.00,,---,0.07,VWS V12.07,2013-05-11 18:30:00,
2013-05-11 15:00:00,71.5,60.8,29.81,NNW,331,1.0,1.0,69,0.00,,---,0.07,VWS V12.07,2013-05-11 19:00:00,
2013-05-11 15:30:00,71.6,57.9,29.81,NNE,22,5.0,6.0,62,0.00,,---,0.07,VWS V12.07,2013-05-11 19:30:00,
2013-05-11 16:00:00,72.8,59.0,29.79,NE,36,4.0,6.0,62,0.00,,---,0.07,VWS V12.07,2013-05-11 20:00:00,
2013-05-11 16:30:00,71.3,60.2,29.79,SE,138,1.0,5.0,68,0.00,,---,0.07,VWS V12.07,2013-05-11 20:30:00,
2013-05-11 17:00:00,70.6,58.3,29.77,North,355,0.0,2.0,65,0.00,,---,0.07,VWS V12.07,2013-05-11 21:00:00,
2013-05-11 17:30:00,65.3,57.5,29.81,North,355,1.0,14.0,76,0.00,,---,0.07,VWS V12.07,2013-05-11 21:30:00,
2013-05-11 18:00:00,59.2,57.5,29.83,SE,139,0.0,0.0,94,0.12,,---,0.20,VWS V12.07,2013-05-11 22:00:00,
2013-05-11 18:30:00,59.3,58.2,29.84,SE,139,0.0,0.0,96,0.16,,---,0.24,VWS V12.07,2013-05-11 22:30:00,
2013-05-11 19:00:00,59.5,58.7,29.83,SSE,163,0.0,2.0,97,0.05,,---,0.24,VWS V12.07,2013-05-11 23:00:00,
2013-05-11 19:30:00,59.9,59.3,29.83,SSE,157,0.0,0.0,98,0.01,,---,0.24,VWS V12.07,2013-05-11 23:30:00,
2013-05-11 20:00:00,59.8,59.2,29.83,SSE,157,0.0,0.0,98,0.00,,---,0.24,VWS V12.07,2013-05-12 00:00:00,
2013-05-11 20:30:00,59.2,58.6,29.81,SSE,157,0.0,0.0,98,0.00,,---,0.24,VWS V12.07,2013-05-12 00:30:00,